createdAt,value
2023-04-16T00:01:08.302Z,102891.44
2023-04-16T00:06:12.800Z,102899.84
2023-04-16T00:11:15.678Z,102904.25
2023-04-16T00:16:18.211Z,102892.81
2023-04-16T00:21:20.863Z,102896.03
2023-04-16T00:26:23.307Z,102894.34
2023-04-16T00:31:33.768Z,102905.53
2023-04-16T00:36:39.026Z,102898.91
2023-04-16T00:41:45.813Z,102903.19
2023-04-16T00:46:48.417Z,102905.31
2023-04-16T00:51:51.276Z,102907.19
2023-04-16T00:56:57.065Z,102893.53
2023-04-16T01:01:59.699Z,102909.31
2023-04-16T01:07:02.398Z,102906.56
2023-04-16T01:12:06.089Z,102891.38
2023-04-16T01:17:08.925Z,102912.16
2023-04-16T01:22:11.480Z,102901.28
2023-04-16T01:27:14.365Z,102921.94
2023-04-16T01:32:16.883Z,102923.28
2023-04-16T01:37:20.170Z,102930.34
2023-04-16T01:42:23.608Z,102938.53
2023-04-16T01:47:27.049Z,102938.53
2023-04-16T01:52:29.692Z,102942.84
2023-04-16T01:57:32.658Z,102952.25
2023-04-16T02:02:36.539Z,102953.94
2023-04-16T02:07:57.782Z,102964.47
2023-04-16T02:13:00.410Z,102961.72
2023-04-16T02:18:03.277Z,102961.41
2023-04-16T02:23:06.741Z,102955.31
2023-04-16T02:28:10.381Z,102972.38
2023-04-16T02:33:15.910Z,102972.09
2023-04-16T02:38:29.917Z,102971.66
2023-04-16T02:43:33.129Z,102978.41
2023-04-16T02:48:36.521Z,102991.72
2023-04-16T02:53:39.510Z,102980.03
2023-04-16T02:58:42.359Z,102985.19
2023-04-16T03:03:44.974Z,102996.78
2023-04-16T03:08:47.503Z,102998.59
2023-04-16T03:13:51.003Z,102996.91
2023-04-16T03:18:53.680Z,103007.66
2023-04-16T03:23:56.395Z,103009.34
2023-04-16T03:28:59.058Z,103008.59
2023-04-16T03:34:03.810Z,103015.97
2023-04-16T03:39:07.950Z,103017.00
2023-04-16T03:44:12.202Z,103015.09
2023-04-16T03:49:14.826Z,103019.53
2023-04-16T03:54:17.855Z,103027.34
2023-04-16T03:59:26.646Z,103035.91
2023-04-16T04:04:29.335Z,103038.75
2023-04-16T04:09:34.334Z,103037.56
2023-04-16T04:14:40.310Z,103025.72
2023-04-16T04:19:54.327Z,103036.25
2023-04-16T04:25:09.171Z,103026.00
2023-04-16T04:30:12.430Z,103038.88
2023-04-16T04:35:16.631Z,103040.94
2023-04-16T04:40:19.610Z,103034.31
2023-04-16T04:45:25.802Z,103042.66
2023-04-16T04:50:30.108Z,103046.81
2023-04-16T04:55:33.383Z,103041.94
2023-04-16T05:00:37.405Z,103037.09
2023-04-16T05:05:41.640Z,103040.22
2023-04-16T05:10:44.162Z,103054.56
2023-04-16T05:15:46.979Z,103049.16
2023-04-16T05:20:49.633Z,103052.44
2023-04-16T05:25:52.215Z,103062.41
2023-04-16T05:30:54.761Z,103057.81
2023-04-16T05:35:57.339Z,103060.91
2023-04-16T05:40:59.840Z,103068.09
2023-04-16T05:46:02.388Z,103075.53
2023-04-16T05:51:05.053Z,103069.38
2023-04-16T05:56:08.251Z,103068.56
2023-04-16T06:01:11.758Z,103072.56
2023-04-16T06:06:17.009Z,103083.94
2023-04-16T06:11:19.732Z,103089.13
2023-04-16T06:16:22.465Z,103078.84
2023-04-16T06:21:25.225Z,103088.47
2023-04-16T06:26:27.863Z,103070.06
2023-04-16T06:31:30.950Z,103077.22
2023-04-16T06:36:33.456Z,103077.41
2023-04-16T06:41:36.260Z,103075.22
2023-04-16T06:46:38.857Z,103079.47
2023-04-16T06:51:43.996Z,103078.34
2023-04-16T06:56:46.678Z,103077.22
2023-04-16T07:01:49.351Z,103070.25
2023-04-16T07:06:51.969Z,103045.03
2023-04-16T07:11:55.066Z,103056.47
2023-04-16T07:16:57.789Z,103054.50
2023-04-16T07:22:00.924Z,103063.47
2023-04-16T07:27:03.535Z,103054.31
2023-04-16T07:32:07.792Z,103053.63
2023-04-16T07:37:10.773Z,103050.72
2023-04-16T07:42:16.154Z,103046.81
2023-04-16T07:47:18.724Z,103046.78
2023-04-16T07:52:21.396Z,103040.25
2023-04-16T07:57:24.003Z,103031.84
2023-04-16T08:02:26.923Z,103032.00
2023-04-16T08:07:31.891Z,103030.19
2023-04-16T08:12:36.064Z,103003.44
2023-04-16T08:17:39.126Z,103009.19
2023-04-16T08:22:41.633Z,103015.41
2023-04-16T08:27:44.185Z,103015.88
2023-04-16T08:32:50.041Z,102999.56
2023-04-16T08:37:54.023Z,103007.63
2023-04-16T08:42:59.551Z,102993.75
2023-04-16T08:48:05.345Z,102992.91
2023-04-16T08:53:14.458Z,102991.00
2023-04-16T08:58:22.573Z,102983.03
2023-04-16T09:03:30.133Z,102975.91
2023-04-16T09:08:33.079Z,102976.75
2023-04-16T09:13:40.030Z,102969.44
2023-04-16T09:18:42.751Z,102967.00
2023-04-16T09:23:47.167Z,102962.03
2023-04-16T09:28:51.636Z,102953.69
2023-04-16T09:34:04.697Z,102956.91
2023-04-16T09:39:07.462Z,102957.41
2023-04-16T09:44:09.983Z,102954.03
2023-04-16T09:49:17.056Z,102944.50
2023-04-16T09:54:20.990Z,102938.63
2023-04-16T09:59:24.672Z,102948.69
2023-04-16T10:04:28.001Z,102930.56
2023-04-16T10:09:38.563Z,102935.59
2023-04-16T10:14:42.321Z,102932.50
2023-04-16T10:19:45.964Z,102930.69
2023-04-16T10:24:50.167Z,102932.50
2023-04-16T10:30:12.117Z,102929.97
2023-04-16T10:35:21.265Z,102924.66
2023-04-16T10:40:26.052Z,102914.59
2023-04-16T10:45:38.505Z,102920.50
2023-04-16T10:51:00.412Z,102922.13
2023-04-16T10:56:09.014Z,102905.72
2023-04-16T11:01:13.897Z,102896.59
2023-04-16T11:06:26.486Z,102888.66
2023-04-16T11:11:39.518Z,102870.44
2023-04-16T11:16:44.905Z,102880.31
2023-04-16T11:21:47.685Z,102861.50
2023-04-16T11:26:56.266Z,102853.91
2023-04-16T11:31:58.869Z,102854.69
2023-04-16T11:37:01.601Z,102851.81
2023-04-16T11:42:04.254Z,102831.72
2023-04-16T11:47:07.916Z,102829.47
2023-04-16T11:52:12.151Z,102829.06
2023-04-16T11:57:15.604Z,102826.34
2023-04-16T12:02:18.065Z,102815.09
2023-04-16T12:07:20.738Z,102810.78
2023-04-16T12:12:28.367Z,102798.00
2023-04-16T12:17:33.661Z,102794.34
2023-04-16T12:22:38.046Z,102797.66
2023-04-16T12:27:43.626Z,102792.97
2023-04-16T12:32:48.610Z,102787.03
2023-04-16T12:37:54.083Z,102785.72
2023-04-16T12:42:56.850Z,102775.16
2023-04-16T12:47:59.670Z,102775.25
2023-04-16T12:53:02.680Z,102769.28
2023-04-16T12:58:05.367Z,102765.53
2023-04-16T13:03:08.336Z,102763.09
2023-04-16T13:08:11.272Z,102755.78
2023-04-16T13:13:13.863Z,102760.22
2023-04-16T13:18:16.473Z,102745.50
2023-04-16T13:23:18.997Z,102735.56
2023-04-16T13:28:21.759Z,102739.72
2023-04-16T13:33:24.367Z,102739.34
2023-04-16T13:38:26.988Z,102738.00
2023-04-16T13:43:29.601Z,102726.41
2023-04-16T13:48:33.024Z,102731.91
2023-04-16T13:53:35.637Z,102731.91
2023-04-16T13:58:38.642Z,102723.22
2023-04-16T14:03:45.332Z,102735.81
2023-04-16T14:08:49.961Z,102723.78
2023-04-16T14:13:52.532Z,102724.81
2023-04-16T14:18:54.981Z,102727.84
2023-04-16T14:23:57.473Z,102725.25
2023-04-16T14:28:59.894Z,102726.25
2023-04-16T14:34:02.857Z,102722.34
2023-04-16T14:39:05.344Z,102727.19
2023-04-16T14:44:08.536Z,102721.97
2023-04-16T14:49:12.399Z,102720.31
2023-04-16T14:54:15.596Z,102730.09
2023-04-16T14:59:18.110Z,102719.16
2023-04-16T15:04:20.982Z,102724.72
2023-04-16T15:09:24.605Z,102724.81
2023-04-16T15:14:27.396Z,102720.66
2023-04-16T15:19:30.051Z,102728.13
2023-04-16T15:24:32.472Z,102723.63
2023-04-16T15:29:38.163Z,102727.06
2023-04-16T15:34:41.803Z,102731.84
2023-04-16T15:39:44.892Z,102727.88
2023-04-16T15:44:47.563Z,102746.75
2023-04-16T15:49:52.004Z,102732.50
2023-04-16T15:54:56.562Z,102748.72
2023-04-16T16:00:07.044Z,102744.28
2023-04-16T16:05:11.588Z,102741.31
2023-04-16T16:10:14.619Z,102748.31
2023-04-16T16:15:17.347Z,102746.03
2023-04-16T16:20:20.053Z,102755.63
2023-04-16T16:25:23.633Z,102753.38
2023-04-16T16:30:26.724Z,102748.06
2023-04-16T16:35:29.309Z,102761.06
2023-04-16T16:40:32.016Z,102765.47
2023-04-16T16:45:36.453Z,102763.56
2023-04-16T16:50:39.042Z,102770.50
2023-04-16T16:55:41.702Z,102778.84
2023-04-16T17:00:44.375Z,102772.16
2023-04-16T17:05:46.960Z,102775.41
2023-04-16T17:10:49.905Z,102775.94
2023-04-16T17:15:52.458Z,102785.19
2023-04-16T17:20:57.820Z,102791.09
2023-04-16T17:26:00.560Z,102779.88
2023-04-16T17:31:03.934Z,102790.75
2023-04-16T17:36:07.685Z,102794.28
2023-04-16T17:41:10.226Z,102797.28
2023-04-16T17:46:31.519Z,102794.25
2023-04-16T17:51:34.401Z,102780.91
2023-04-16T17:56:37.729Z,102794.59
2023-04-16T18:01:41.102Z,102795.72
2023-04-16T18:06:43.716Z,102787.09
2023-04-16T18:11:46.469Z,102792.25
2023-04-16T18:16:49.699Z,102777.03
2023-04-16T18:21:52.272Z,102777.91
2023-04-16T18:26:55.276Z,102784.59
2023-04-16T18:32:04.811Z,102779.03
2023-04-16T18:37:07.776Z,102766.59
2023-04-16T18:42:10.286Z,102772.47
2023-04-16T18:47:12.844Z,102772.91
2023-04-16T18:52:15.709Z,102764.38
2023-04-16T18:57:18.367Z,102767.16
2023-04-16T19:02:22.073Z,102770.38
2023-04-16T19:07:24.671Z,102775.97
2023-04-16T19:12:27.233Z,102761.16
2023-04-16T19:17:29.754Z,102768.56
2023-04-16T19:22:32.324Z,102761.00
2023-04-16T19:27:37.934Z,102767.16
2023-04-16T19:32:40.809Z,102769.94
2023-04-16T19:37:43.873Z,102772.59
2023-04-16T19:42:46.645Z,102790.06
2023-04-16T19:47:51.436Z,102780.16
2023-04-16T19:52:53.870Z,102785.44
2023-04-16T19:57:58.052Z,102778.16
2023-04-16T20:03:00.876Z,102780.38
2023-04-16T20:08:03.470Z,102784.97
2023-04-16T20:13:10.212Z,102786.38
2023-04-16T20:18:13.810Z,102785.81
2023-04-16T20:23:16.653Z,102783.66
2023-04-16T20:28:21.683Z,102786.28
2023-04-16T20:33:24.309Z,102768.41
2023-04-16T20:38:29.859Z,102789.63
2023-04-16T20:43:38.833Z,102777.34
2023-04-16T20:48:41.482Z,102780.28
2023-04-16T20:53:44.145Z,102776.09
2023-04-16T20:58:47.811Z,102777.47
2023-04-16T21:03:53.705Z,102772.47
2023-04-16T21:08:56.518Z,102774.97
2023-04-16T21:14:07.865Z,102770.19
2023-04-16T21:19:10.919Z,102758.59
2023-04-16T21:29:33.735Z,102760.38
2023-04-16T21:34:36.360Z,102761.47
2023-04-16T21:39:38.856Z,102759.38
2023-04-16T21:44:41.395Z,102755.28
2023-04-16T21:49:43.906Z,102756.78
2023-04-16T21:54:47.806Z,102757.06
2023-04-16T21:59:50.350Z,102749.50
2023-04-16T22:04:55.979Z,102749.91
2023-04-16T22:09:58.496Z,102744.00
2023-04-16T22:15:03.049Z,102742.63
2023-04-16T22:20:09.593Z,102752.38
2023-04-16T22:25:12.341Z,102743.00
2023-04-16T22:30:14.929Z,102746.75
2023-04-16T22:35:18.466Z,102756.78
2023-04-16T22:40:21.245Z,102752.56
2023-04-16T22:45:23.812Z,102748.13
2023-04-16T22:50:26.508Z,102736.56
2023-04-16T22:55:30.163Z,102737.91
2023-04-16T23:00:35.667Z,102737.59
2023-04-16T23:05:38.169Z,102739.09
2023-04-16T23:10:40.682Z,102749.03
2023-04-16T23:15:44.003Z,102743.38
2023-04-16T23:20:46.755Z,102746.91
2023-04-16T23:25:52.090Z,102751.28
2023-04-16T23:30:54.615Z,102744.13
2023-04-16T23:35:57.137Z,102747.28
2023-04-16T23:41:00.459Z,102747.91
2023-04-16T23:46:05.526Z,102755.47
2023-04-16T23:51:08.084Z,102762.97
2023-04-16T23:56:13.729Z,102757.31
